Time;durP1;ratioP1;P1;durP2;ratioP2;P2;SDS_P1;SDS_P2;PMS_P1;PMS_P2;Temp;Humidity;BMP_temperature;BMP_pressure;BME280_temperature;BME280_humidity;BME280_pressure;Samples;Min_cycle;Max_cycle;Signal;HPM_P1;HPM_P2
2021/08/28 00:01:38;;;;;;;3.15;2.85;;;15.00;68.50;;;;;;4996911;28;95308;-49
2021/08/28 00:04:09;;;;;;;3.75;3.03;;;15.00;68.80;;;;;;4998941;28;96979;-51
2021/08/28 00:06:40;;;;;;;4.07;3.43;;;15.10;68.70;;;;;;4998535;28;95978;-55
2021/08/28 00:09:13;;;;;;;3.38;2.92;;;15.20;68.80;;;;;;4999192;28;94998;-54
2021/08/28 00:11:44;;;;;;;2.97;2.70;;;15.30;68.80;;;;;;4998522;28;95247;-52
2021/08/28 00:14:16;;;;;;;2.75;2.55;;;15.30;68.60;;;;;;4998109;28;96615;-53
2021/08/28 00:16:50;;;;;;;2.90;2.35;;;15.40;68.70;;;;;;4996596;28;95426;-52
2021/08/28 00:19:21;;;;;;;2.67;2.47;;;15.50;68.80;;;;;;4997806;28;94993;-52
2021/08/28 00:21:53;;;;;;;2.47;2.28;;;15.50;68.70;;;;;;4998142;28;95365;-53
2021/08/28 00:24:25;;;;;;;2.88;1.92;;;15.60;68.70;;;;;;4997454;28;96455;-54
2021/08/28 00:27:11;;;;;;;2.47;2.28;;;15.60;68.80;;;;;;4997252;28;95578;-51
2021/08/28 00:29:43;;;;;;;1.98;1.80;;;15.70;68.80;;;;;;4997698;28;94879;-49
2021/08/28 00:32:16;;;;;;;2.70;2.50;;;15.80;68.90;;;;;;4996669;28;95321;-50
2021/08/28 00:34:48;;;;;;;2.22;2.03;;;15.80;69.00;;;;;;4979836;28;96421;-55
2021/08/28 00:37:20;;;;;;;2.72;2.53;;;15.90;69.10;;;;;;4997746;28;95977;-51
2021/08/28 00:39:51;;;;;;;2.63;2.42;;;16.00;69.20;;;;;;4997992;28;94962;-50
2021/08/28 00:42:24;;;;;;;3.20;2.53;;;16.10;69.30;;;;;;4998139;28;95324;-52
2021/08/28 00:44:56;;;;;;;4.18;2.67;;;16.10;69.40;;;;;;4997767;28;96477;-53
2021/08/28 00:47:28;;;;;;;2.70;2.50;;;16.20;69.40;;;;;;4996141;28;95835;-54
2021/08/28 00:50:02;;;;;;;2.85;2.30;;;16.30;70.40;;;;;;4998751;28;94977;-53
2021/08/28 00:52:36;;;;;;;2.58;2.38;;;16.40;70.40;;;;;;4965111;28;95337;-50
2021/08/28 00:55:11;;;;;;;3.80;2.53;;;16.50;70.90;;;;;;4998233;28;97105;-51
2021/08/28 00:57:47;;;;;;;3.10;2.40;;;16.60;70.40;;;;;;4964839;28;95867;-49
2021/08/28 01:00:22;;;;;;;4.65;2.65;;;16.70;70.30;;;;;;4979781;28;94981;-52
2021/08/28 01:03:04;;;;;;;2.30;2.10;;;16.70;70.00;;;;;;4980891;28;95324;-49
2021/08/28 01:05:54;;;;;;;2.10;2.00;;;16.80;69.80;;;;;;4979209;28;98664;-49
2021/08/28 01:08:41;;;;;;;3.15;2.33;;;16.80;69.50;;;;;;4979240;28;96118;-50
2021/08/28 01:12:12;;;;;;;2.83;2.17;;;16.90;69.10;;;;;;4979381;28;95016;-49
2021/08/28 01:15:02;;;;;;;1.88;1.77;;;17.00;68.90;;;;;;4977251;28;95431;-49
2021/08/28 01:17:38;;;;;;;5.47;2.05;;;17.10;68.60;;;;;;4977504;28;96481;-49
2021/08/28 01:20:36;;;;;;;1.73;1.63;;;17.10;68.40;;;;;;4996750;28;95123;-49
2021/08/28 01:23:33;;;;;;;2.13;1.92;;;17.20;68.20;;;;;;4994431;28;95099;-51
2021/08/28 01:27:08;;;;;;;2.28;2.10;;;17.30;68.00;;;;;;4997330;28;94927;-50
2021/08/28 01:29:41;;;;;;;2.72;1.70;;;17.30;67.70;;;;;;4973160;28;96178;-51
2021/08/28 01:32:17;;;;;;;1.60;1.50;;;17.40;67.50;;;;;;4977881;28;96022;-52
2021/08/28 01:34:49;;;;;;;2.25;1.65;;;17.50;67.40;;;;;;4980195;28;95162;-50
2021/08/28 01:37:22;;;;;;;3.22;1.70;;;17.50;67.20;;;;;;4997909;28;95318;-50
2021/08/28 01:40:14;;;;;;;2.58;2.17;;;17.60;67.20;;;;;;4997551;28;95610;-51
2021/08/28 01:42:58;;;;;;;1.98;1.73;;;17.60;67.00;;;;;;4982216;28;95852;-52
2021/08/28 01:45:30;;;;;;;1.58;1.48;;;17.70;66.90;;;;;;4981161;28;95016;-52
2021/08/28 01:48:03;;;;;;;2.92;1.90;;;17.70;66.80;;;;;;5001709;28;95299;-53
2021/08/28 01:50:37;;;;;;;1.63;1.52;;;17.80;66.70;;;;;;5001488;28;95919;-53
2021/08/28 01:53:19;;;;;;;1.73;1.60;;;17.80;66.50;;;;;;5001258;28;95995;-51
2021/08/28 01:55:50;;;;;;;3.00;1.70;;;17.90;66.40;;;;;;5001220;28;94965;-52
2021/08/28 01:58:29;;;;;;;1.50;1.40;;;17.90;66.20;;;;;;4982765;28;95341;-53
2021/08/28 02:01:40;;;;;;;1.50;1.40;;;18.00;66.20;;;;;;4996622;28;96521;-54
2021/08/28 02:04:13;;;;;;;1.48;1.38;;;18.00;66.10;;;;;;4981669;28;95508;-54
2021/08/28 02:07:18;;;;;;;1.15;1.05;;;18.10;66.00;;;;;;4998575;28;95275;-53
2021/08/28 02:10:13;;;;;;;1.75;1.65;;;18.10;65.80;;;;;;4982125;28;95472;-52
2021/08/28 02:12:57;;;;;;;1.92;1.80;;;18.20;65.70;;;;;;4981689;28;96120;-52
2021/08/28 02:15:34;;;;;;;1.80;1.70;;;18.20;65.60;;;;;;4981083;28;95466;-55
2021/08/28 02:18:33;;;;;;;1.90;1.70;;;18.30;65.60;;;;;;4999888;28;94960;-53
2021/08/28 02:21:31;;;;;;;2.20;2.00;;;18.30;65.40;;;;;;4998419;28;94939;-52
2021/08/28 02:24:13;;;;;;;2.33;2.03;;;18.40;65.50;;;;;;4966218;28;96448;-49
2021/08/28 02:26:57;;;;;;;2.00;1.80;;;18.40;65.30;;;;;;4999445;28;95065;-48
2021/08/28 02:29:38;;;;;;;4.47;2.10;;;18.40;65.50;;;;;;4999925;28;94951;-54
2021/08/28 02:32:12;;;;;;;2.40;2.20;;;18.40;65.50;;;;;;4998314;28;95326;-53
2021/08/28 02:34:51;;;;;;;2.30;2.10;;;18.30;65.40;;;;;;4999265;28;96517;-52
2021/08/28 02:37:24;;;;;;;5.97;2.03;;;18.30;65.70;;;;;;4999383;28;95204;-54
2021/08/28 02:39:58;;;;;;;5.63;2.67;;;18.30;66.10;;;;;;4999612;28;95643;-54
2021/08/28 02:42:32;;;;;;;2.67;1.95;;;18.30;66.40;;;;;;4981935;28;95329;-55
2021/08/28 02:45:04;;;;;;;2.40;2.17;;;18.30;66.70;;;;;;4999411;28;96396;-55
2021/08/28 02:47:36;;;;;;;6.65;2.20;;;18.30;66.90;;;;;;4980880;28;97983;-53
2021/08/28 02:50:08;;;;;;;2.45;2.03;;;18.30;67.00;;;;;;5000604;28;95002;-55
2021/08/28 02:52:56;;;;;;;2.90;2.17;;;18.30;67.00;;;;;;5000573;28;95360;-51
2021/08/28 02:55:34;;;;;;;2.00;1.80;;;18.30;67.10;;;;;;5000512;28;96001;-56
2021/08/28 02:58:07;;;;;;;4.05;2.20;;;18.30;67.10;;;;;;4982711;28;95887;-52
2021/08/28 03:00:41;;;;;;;1.90;1.70;;;18.30;67.20;;;;;;4980063;28;95207;-54
2021/08/28 03:03:15;;;;;;;1.58;1.48;;;18.30;67.10;;;;;;4999694;28;95302;-55
2021/08/28 03:05:50;;;;;;;3.60;2.20;;;18.30;66.80;;;;;;4998917;28;96403;-54
2021/08/28 03:08:25;;;;;;;2.15;1.70;;;18.40;67.30;;;;;;4980835;28;95816;-53
2021/08/28 03:10:57;;;;;;;2.45;2.03;;;18.40;67.30;;;;;;4999100;28;94958;-54
2021/08/28 03:13:31;;;;;;;2.78;2.08;;;18.40;67.30;;;;;;4999320;28;95549;-55
2021/08/28 03:16:04;;;;;;;3.00;1.90;;;18.40;67.40;;;;;;4980333;28;96556;-54
2021/08/28 03:18:40;;;;;;;3.28;1.88;;;18.40;67.40;;;;;;4980867;28;95477;-55
2021/08/28 03:21:14;;;;;;;3.63;2.20;;;18.40;67.30;;;;;;4998677;28;95410;-55
2021/08/28 03:23:49;;;;;;;3.42;2.10;;;18.40;67.30;;;;;;4999044;28;95375;-52
2021/08/28 03:26:23;;;;;;;4.07;2.03;;;18.40;67.40;;;;;;4998904;28;95849;-52
2021/08/28 03:28:57;;;;;;;2.72;2.53;;;18.40;67.20;;;;;;4998246;28;95944;-54
2021/08/28 03:31:31;;;;;;;2.50;1.98;;;18.50;67.00;;;;;;4979404;28;94988;-53
2021/08/28 03:34:03;;;;;;;7.05;2.42;;;18.50;66.80;;;;;;4980993;28;95396;-52
2021/08/28 03:36:37;;;;;;;1.45;1.35;;;18.60;66.70;;;;;;4980541;28;96289;-51
2021/08/28 03:39:11;;;;;;;2.17;1.92;;;18.60;66.50;;;;;;4980538;28;95489;-55
2021/08/28 03:41:44;;;;;;;3.45;1.85;;;18.60;66.30;;;;;;4998617;28;94946;-51
2021/08/28 03:44:19;;;;;;;2.88;2.15;;;18.70;66.20;;;;;;4980871;28;95358;-52
2021/08/28 03:46:51;;;;;;;2.70;1.90;;;18.70;66.10;;;;;;4998095;28;95458;-50
2021/08/28 03:49:23;;;;;;;2.67;1.90;;;18.70;66.00;;;;;;4999387;28;95788;-50
2021/08/28 03:51:57;;;;;;;2.65;1.83;;;18.70;65.90;;;;;;4999257;28;94948;-53
2021/08/28 03:54:30;;;;;;;2.28;1.60;;;18.80;65.90;;;;;;4999157;28;95350;-51
2021/08/28 03:57:04;;;;;;;2.63;1.90;;;18.80;65.70;;;;;;4998861;28;96550;-51
2021/08/28 03:59:37;;;;;;;2.30;1.70;;;18.80;65.70;;;;;;4980113;28;96121;-51
2021/08/28 04:02:12;;;;;;;2.58;1.55;;;18.90;65.60;;;;;;4979852;28;95014;-51
2021/08/28 04:04:51;;;;;;;4.10;1.60;;;18.90;65.60;;;;;;4999164;28;95292;-50
2021/08/28 04:07:24;;;;;;;1.60;1.42;;;18.90;65.50;;;;;;4980014;28;96423;-50
2021/08/28 04:09:56;;;;;;;2.03;1.70;;;19.00;65.40;;;;;;4998196;28;95939;-52
2021/08/28 04:12:27;;;;;;;1.90;1.45;;;19.00;65.30;;;;;;4964423;28;95103;-50
2021/08/28 04:15:04;;;;;;;2.80;1.33;;;19.00;65.30;;;;;;4998221;28;95340;-50
2021/08/28 04:17:57;;;;;;;3.00;1.83;;;19.00;65.20;;;;;;4995423;28;102403;-49
2021/08/28 04:20:31;;;;;;;2.05;1.63;;;19.00;65.30;;;;;;4979281;28;95901;-49
2021/08/28 04:23:12;;;;;;;2.40;2.13;;;19.00;65.30;;;;;;4980047;28;95027;-50
2021/08/28 04:26:02;;;;;;;2.17;1.60;;;19.00;65.20;;;;;;4995582;28;94970;-51
2021/08/28 04:28:38;;;;;;;1.83;1.50;;;19.00;65.20;;;;;;4997852;28;96551;-51
2021/08/28 04:31:10;;;;;;;2.30;1.50;;;19.00;65.10;;;;;;4995999;28;95984;-50
2021/08/28 04:33:42;;;;;;;1.83;1.30;;;19.00;65.00;;;;;;4997733;28;95123;-51
2021/08/28 04:36:14;;;;;;;1.63;1.38;;;19.10;65.00;;;;;;4998335;28;95176;-50
2021/08/28 04:38:47;;;;;;;2.03;1.40;;;19.10;65.00;;;;;;4979721;28;96134;-49
2021/08/28 04:41:22;;;;;;;1.83;1.50;;;19.10;65.00;;;;;;4979576;28;95497;-50
2021/08/28 04:43:54;;;;;;;2.45;1.58;;;19.10;64.90;;;;;;4997684;28;94967;-52
2021/08/28 04:46:26;;;;;;;1.85;1.42;;;19.10;64.80;;;;;;4996556;28;95299;-51
2021/08/28 04:49:01;;;;;;;1.63;1.52;;;19.10;64.80;;;;;;4980640;28;96038;-50
2021/08/28 04:51:42;;;;;;;1.52;1.42;;;19.10;64.70;;;;;;4980317;28;95701;-49
2021/08/28 04:54:14;;;;;;;2.35;1.58;;;19.10;64.70;;;;;;4998712;28;95080;-51
2021/08/28 04:56:51;;;;;;;2.55;1.58;;;19.10;64.60;;;;;;4981277;28;95453;-54
2021/08/28 04:59:24;;;;;;;3.60;1.55;;;19.20;64.70;;;;;;4997513;28;96502;-51
2021/08/28 05:02:20;;;;;;;2.70;1.55;;;19.20;64.60;;;;;;4996382;28;95732;-49
2021/08/28 05:04:59;;;;;;;2.15;1.67;;;19.20;64.60;;;;;;4997913;28;94961;-52
2021/08/28 05:07:32;;;;;;;3.50;2.05;;;19.20;64.60;;;;;;4980986;28;95153;-49
2021/08/28 05:10:06;;;;;;;3.38;1.70;;;19.20;64.40;;;;;;4997158;28;96452;-49
2021/08/28 05:12:39;;;;;;;2.80;1.80;;;19.20;62.30;;;;;;4997695;28;96006;-51
2021/08/28 05:15:17;;;;;;;2.45;1.80;;;19.20;61.80;;;;;;5000710;28;94972;-53
2021/08/28 05:17:59;;;;;;;2.58;1.67;;;19.20;62.40;;;;;;4985092;28;95422;-50
2021/08/28 05:20:32;;;;;;;3.17;1.98;;;19.20;61.60;;;;;;5000414;28;96435;-52
2021/08/28 05:23:44;;;;;;;2.85;1.88;;;19.20;61.10;;;;;;4968066;28;95338;-51
2021/08/28 05:26:34;;;;;;;2.70;1.90;;;19.20;61.40;;;;;;4962121;28;95057;-52
2021/08/28 05:29:06;;;;;;;2.45;2.20;;;19.20;61.10;;;;;;4993194;28;95412;-54
2021/08/28 05:31:39;;;;;;;2.42;2.17;;;19.20;60.90;;;;;;4999837;28;95891;-54
2021/08/28 05:34:13;;;;;;;3.45;1.88;;;19.20;60.90;;;;;;4982469;28;95410;-51
2021/08/28 05:37:05;;;;;;;2.22;1.85;;;19.20;60.70;;;;;;4998123;28;95004;-49
2021/08/28 05:39:55;;;;;;;2.13;1.90;;;19.20;60.60;;;;;;5001307;28;94972;-55
2021/08/28 05:42:30;;;;;;;3.08;2.00;;;19.20;60.50;;;;;;5000294;28;96366;-52
2021/08/28 05:45:01;;;;;;;2.60;1.65;;;19.20;60.40;;;;;;5000688;28;95865;-54
2021/08/28 05:47:33;;;;;;;2.45;1.85;;;19.20;60.10;;;;;;4966272;28;95012;-50
2021/08/28 05:50:10;;;;;;;2.42;1.65;;;19.10;59.70;;;;;;4983894;28;95367;-49
2021/08/28 05:52:42;;;;;;;3.13;1.98;;;19.10;60.00;;;;;;5001341;28;96428;-50
2021/08/28 05:55:14;;;;;;;2.85;1.77;;;19.10;60.00;;;;;;5001070;28;95789;-54
2021/08/28 05:57:49;;;;;;;2.53;1.63;;;19.10;60.20;;;;;;4983213;28;95041;-50
2021/08/28 06:00:24;;;;;;;3.35;1.95;;;19.00;60.50;;;;;;4981553;28;95494;-51
2021/08/28 06:03:06;;;;;;;3.78;1.50;;;19.00;61.20;;;;;;4984720;28;96665;-53
2021/08/28 06:05:37;;;;;;;4.63;1.67;;;19.00;60.60;;;;;;5000989;28;95327;-48
2021/08/28 06:08:34;;;;;;;4.38;1.65;;;19.00;59.90;;;;;;4991557;28;95945;-50
2021/08/28 06:11:10;;;;;;;4.07;1.40;;;18.90;60.20;;;;;;4997671;28;95146;-51
2021/08/28 06:14:06;;;;;;;3.00;1.27;;;18.90;59.50;;;;;;4981987;28;96467;-54
2021/08/28 06:16:48;;;;;;;3.78;2.03;;;18.90;58.60;;;;;;4965740;28;95916;-55
2021/08/28 06:19:24;;;;;;;1.05;0.95;;;18.90;59.00;;;;;;4981938;28;95050;-52
2021/08/28 06:21:59;;;;;;;2.90;1.50;;;18.90;59.40;;;;;;5000500;28;95304;-52
2021/08/28 06:24:32;;;;;;;1.58;1.20;;;18.90;58.90;;;;;;4981784;28;96523;-51
2021/08/28 06:27:12;;;;;;;3.80;1.95;;;18.80;59.00;;;;;;4981750;28;97438;-48
2021/08/28 06:29:45;;;;;;;2.40;1.30;;;18.90;58.70;;;;;;4999983;28;95065;-48
2021/08/28 06:32:17;;;;;;;1.40;1.10;;;18.80;58.00;;;;;;4998699;28;95348;-49
2021/08/28 06:34:49;;;;;;;1.20;1.10;;;18.80;58.50;;;;;;4999529;28;96417;-50
2021/08/28 06:37:27;;;;;;;1.30;1.20;;;18.80;58.90;;;;;;4966667;28;95893;-48
2021/08/28 06:40:18;;;;;;;2.35;1.30;;;18.80;58.90;;;;;;4996910;28;94888;-52
2021/08/28 06:43:17;;;;;;;2.65;1.30;;;18.80;58.40;;;;;;4998544;28;95098;-51
2021/08/28 06:46:11;;;;;;;1.23;1.13;;;18.80;58.30;;;;;;4997251;28;95667;-53
2021/08/28 06:49:04;;;;;;;2.25;1.35;;;18.70;58.50;;;;;;4997972;28;95098;-52
2021/08/28 06:51:55;;;;;;;2.35;1.27;;;18.70;58.30;;;;;;4998153;28;94911;-48
2021/08/28 06:54:45;;;;;;;1.50;1.17;;;18.70;58.30;;;;;;4998081;28;94997;-50
2021/08/28 06:57:36;;;;;;;1.92;1.00;;;18.70;57.70;;;;;;4997361;28;95619;-50
2021/08/28 07:00:29;;;;;;;2.33;0.88;;;18.70;57.80;;;;;;4997938;28;95313;-53
2021/08/28 07:03:20;;;;;;;0.88;0.77;;;18.70;57.80;;;;;;4997236;28;94957;-53
2021/08/28 07:05:53;;;;;;;2.10;1.55;;;18.70;57.90;;;;;;4982058;28;95366;-49
2021/08/28 07:08:28;;;;;;;1.42;1.30;;;18.60;57.90;;;;;;4999371;28;96600;-51
2021/08/28 07:10:59;;;;;;;1.30;1.20;;;18.60;57.40;;;;;;4999084;28;95784;-49
2021/08/28 07:13:32;;;;;;;2.90;1.35;;;18.60;57.50;;;;;;4999380;28;95064;-49
2021/08/28 07:16:10;;;;;;;2.00;1.60;;;18.60;57.30;;;;;;4979529;28;95379;-49
2021/08/28 07:18:43;;;;;;;2.53;1.90;;;18.50;56.60;;;;;;4999090;28;96543;-49
2021/08/28 07:21:18;;;;;;;3.10;1.92;;;18.50;56.90;;;;;;4965135;28;95908;-48
2021/08/28 07:23:50;;;;;;;4.10;2.63;;;18.50;56.40;;;;;;4999230;28;94964;-51
2021/08/28 07:26:33;;;;;;;4.07;2.67;;;18.50;56.80;;;;;;4999238;28;95350;-53
2021/08/28 07:29:25;;;;;;;4.82;2.95;;;18.50;56.70;;;;;;4998364;28;95696;-48
2021/08/28 07:31:57;;;;;;;6.15;3.45;;;18.40;56.30;;;;;;4979448;28;98079;-52
2021/08/28 07:34:35;;;;;;;5.28;3.40;;;18.40;56.60;;;;;;4998446;28;94971;-52
2021/08/28 07:37:07;;;;;;;4.57;2.83;;;18.40;56.10;;;;;;4998883;28;95294;-48
2021/08/28 07:39:40;;;;;;;3.85;3.03;;;18.40;56.50;;;;;;4980741;28;96532;-51
2021/08/28 07:42:13;;;;;;;5.35;3.30;;;18.30;56.40;;;;;;4999046;28;95714;-49
2021/08/28 07:44:52;;;;;;;3.80;2.70;;;18.30;56.20;;;;;;4999334;28;94916;-49
2021/08/28 07:47:25;;;;;;;5.53;3.38;;;18.30;56.30;;;;;;4981118;28;95383;-50
2021/08/28 07:49:56;;;;;;;4.95;2.90;;;18.20;55.80;;;;;;4999528;28;96367;-53
2021/08/28 07:52:30;;;;;;;4.22;2.88;;;18.20;56.20;;;;;;4980744;28;95816;-51
2021/08/28 07:55:06;;;;;;;3.92;2.53;;;18.20;55.90;;;;;;4999814;28;94797;-50
2021/08/28 07:57:40;;;;;;;4.68;2.67;;;18.20;56.00;;;;;;4981819;28;95395;-49
2021/08/28 08:00:14;;;;;;;4.20;2.20;;;18.10;56.50;;;;;;4965279;28;96413;-49
2021/08/28 08:02:46;;;;;;;4.10;2.75;;;18.10;56.00;;;;;;4980536;28;95786;-51
2021/08/28 08:05:48;;;;;;;5.15;2.72;;;18.10;56.10;;;;;;4996102;28;95294;-51
2021/08/28 08:08:39;;;;;;;4.83;2.73;;;18.00;55.60;;;;;;4999063;28;94921;-53
2021/08/28 08:11:29;;;;;;;3.58;2.75;;;18.00;56.10;;;;;;4983949;28;95029;-50
2021/08/28 08:14:37;;;;;;;3.95;2.47;;;18.00;55.90;;;;;;4936769;28;95794;-55
2021/08/28 08:17:29;;;;;;;5.13;2.90;;;17.90;56.40;;;;;;4967327;28;95372;-53
2021/08/28 08:20:20;;;;;;;3.53;2.28;;;17.90;56.30;;;;;;4982322;28;95296;-53
2021/08/28 08:23:16;;;;;;;4.75;3.08;;;17.80;56.10;;;;;;4980193;28;95769;-50
2021/08/28 08:26:11;;;;;;;4.70;3.13;;;17.80;56.30;;;;;;4997311;28;95605;-50
2021/08/28 08:29:03;;;;;;;4.53;2.97;;;17.80;56.50;;;;;;4980860;28;94965;-48
2021/08/28 08:31:53;;;;;;;3.92;3.40;;;17.80;56.70;;;;;;4964868;28;95411;-51
2021/08/28 08:34:46;;;;;;;3.70;2.90;;;17.80;56.80;;;;;;4982865;28;96305;-52
2021/08/28 08:37:26;;;;;;;4.22;3.17;;;17.80;57.00;;;;;;4964446;28;96153;-54
2021/08/28 08:40:04;;;;;;;;;;;17.80;57.20;;;;;;4981975;28;95188;-54
2021/08/28 08:42:47;;;;;;;4.72;2.90;;;17.90;57.60;;;;;;4981668;28;95402;-53
2021/08/28 08:45:21;;;;;;;4.35;3.22;;;17.80;57.90;;;;;;4997547;28;96419;-50
2021/08/28 08:47:59;;;;;;;4.00;2.88;;;17.90;58.40;;;;;;4964714;28;103141;-49
2021/08/28 08:50:39;;;;;;;3.85;2.72;;;17.90;58.70;;;;;;4998642;28;94954;-50
2021/08/28 08:53:21;;;;;;;4.05;2.80;;;17.90;59.00;;;;;;4981093;28;95451;-50
2021/08/28 08:56:15;;;;;;;4.10;2.92;;;17.90;59.30;;;;;;4998305;28;95747;-49
2021/08/28 08:58:53;;;;;;;6.18;3.10;;;17.90;59.60;;;;;;4980742;28;94962;-52
2021/08/28 09:01:30;;;;;;;4.78;3.08;;;17.90;59.90;;;;;;4980081;28;95423;-50
2021/08/28 09:04:40;;;;;;;5.60;3.58;;;17.90;60.00;;;;;;4976384;28;95051;-50
2021/08/28 09:07:15;;;;;;;5.63;3.75;;;17.90;60.20;;;;;;4977718;28;96082;-51
2021/08/28 09:09:51;;;;;;;4.90;3.33;;;17.90;60.40;;;;;;4964107;28;95862;-50
2021/08/28 09:12:42;;;;;;;4.70;3.58;;;17.90;60.50;;;;;;4980837;28;94983;-51
2021/08/28 09:15:22;;;;;;;6.22;3.72;;;18.00;60.80;;;;;;4997400;28;95307;-49
2021/08/28 09:18:05;;;;;;;4.40;3.17;;;17.90;60.80;;;;;;4996766;28;103187;-51
2021/08/28 09:20:45;;;;;;;5.70;4.28;;;17.90;61.10;;;;;;4980463;28;95492;-51
2021/08/28 09:23:23;;;;;;;6.78;4.05;;;18.00;61.20;;;;;;4997537;28;94959;-50
2021/08/28 09:25:58;;;;;;;5.43;4.13;;;17.90;61.50;;;;;;4997763;28;95221;-52
2021/08/28 09:28:37;;;;;;;6.80;4.05;;;17.90;61.60;;;;;;4979905;28;96844;-52
2021/08/28 09:31:13;;;;;;;6.53;4.80;;;17.90;61.90;;;;;;4978464;28;95278;-51
2021/08/28 09:34:10;;;;;;;4.72;4.22;;;17.90;61.90;;;;;;4997782;28;94948;-51
2021/08/28 09:37:11;;;;;;;7.55;4.82;;;17.90;62.10;;;;;;4997481;28;95456;-52
2021/08/28 09:39:50;;;;;;;8.57;5.45;;;17.90;62.20;;;;;;4996989;28;96398;-50
2021/08/28 09:42:26;;;;;;;6.25;4.68;;;17.90;62.30;;;;;;4980136;28;95365;-50
2021/08/28 09:45:10;;;;;;;6.88;4.53;;;17.90;62.90;;;;;;4997708;28;95233;-52
2021/08/28 09:47:46;;;;;;;8.23;4.65;;;18.00;62.60;;;;;;4997794;28;95350;-52
2021/08/28 09:50:41;;;;;;;11.05;6.25;;;18.00;62.70;;;;;;4997934;28;96127;-53
2021/08/28 09:53:31;;;;;;;6.15;5.55;;;18.00;63.50;;;;;;4997556;28;96258;-52
2021/08/28 09:56:09;;;;;;;6.85;5.25;;;18.00;63.70;;;;;;4998060;28;94942;-50
2021/08/28 09:58:48;;;;;;;5.78;4.95;;;18.00;63.60;;;;;;4998790;28;95364;-51
2021/08/28 10:01:25;;;;;;;7.47;5.72;;;18.00;63.90;;;;;;4994837;28;95959;-55
2021/08/28 10:04:02;;;;;;;8.40;5.75;;;18.10;64.10;;;;;;5000880;28;95313;-52
2021/08/28 10:06:50;;;;;;;8.45;6.20;;;18.10;64.10;;;;;;4984106;28;95073;-49
2021/08/28 10:09:25;;;;;;;7.03;5.50;;;18.20;64.20;;;;;;4967709;28;95413;-51
2021/08/28 10:11:57;;;;;;;9.40;6.07;;;18.20;64.60;;;;;;4982591;28;94998;-48
2021/08/28 10:14:30;;;;;;;7.88;6.03;;;18.20;65.80;;;;;;4982406;28;95100;-51
2021/08/28 10:17:04;;;;;;;9.43;6.03;;;18.20;66.70;;;;;;4980023;28;95025;-53
2021/08/28 10:19:39;;;;;;;9.00;6.78;;;18.30;66.90;;;;;;4982297;28;95341;-53
2021/08/28 10:22:14;;;;;;;7.68;6.28;;;18.30;66.90;;;;;;4999902;28;95889;-53
2021/08/28 10:24:47;;;;;;;8.85;5.97;;;18.30;66.20;;;;;;4999523;28;96021;-51
2021/08/28 10:27:21;;;;;;;8.27;6.05;;;18.30;65.90;;;;;;5000045;28;94971;-54
2021/08/28 10:29:55;;;;;;;7.13;5.72;;;18.40;65.90;;;;;;4982295;28;95370;-50
2021/08/28 10:32:27;;;;;;;8.65;5.97;;;18.40;65.70;;;;;;4996638;28;95455;-51
2021/08/28 10:34:58;;;;;;;9.48;7.32;;;18.40;65.50;;;;;;4999000;28;95127;-53
2021/08/28 10:37:31;;;;;;;8.90;6.85;;;18.40;65.10;;;;;;5000158;28;94938;-51
2021/08/28 10:40:07;;;;;;;11.40;7.13;;;18.50;64.80;;;;;;4999847;28;95339;-50
2021/08/28 10:42:42;;;;;;;9.88;6.82;;;18.50;64.50;;;;;;4999188;28;95420;-51
2021/08/28 10:45:14;;;;;;;9.95;7.25;;;18.50;64.30;;;;;;4981809;28;95078;-52
2021/08/28 10:48:01;;;;;;;9.25;7.45;;;18.50;64.20;;;;;;5000288;28;94861;-53
2021/08/28 10:50:37;;;;;;;10.15;8.30;;;18.50;64.10;;;;;;5000848;28;95362;-54
2021/08/28 10:53:12;;;;;;;12.73;9.10;;;18.50;63.90;;;;;;4982220;28;96462;-55
2021/08/28 10:55:47;;;;;;;14.45;10.05;;;18.50;63.80;;;;;;5000222;28;94910;-53
2021/08/28 10:58:23;;;;;;;11.65;9.30;;;18.40;63.60;;;;;;4966975;28;95078;-51
2021/08/28 11:00:59;;;;;;;14.10;11.23;;;18.30;63.60;;;;;;4998204;28;95294;-52
2021/08/28 11:03:32;;;;;;;13.23;10.77;;;18.30;63.60;;;;;;4999007;28;96925;-54
2021/08/28 11:06:16;;;;;;;14.90;11.00;;;18.20;63.60;;;;;;4998976;28;95116;-50
2021/08/28 11:08:54;;;;;;;14.80;10.90;;;18.20;63.70;;;;;;4999086;28;94960;-49
2021/08/28 11:11:38;;;;;;;13.77;11.48;;;18.10;63.70;;;;;;4980709;28;95366;-53
2021/08/28 11:14:14;;;;;;;15.15;12.43;;;18.10;63.80;;;;;;4998361;28;96447;-52
2021/08/28 11:16:52;;;;;;;17.83;13.00;;;18.00;63.80;;;;;;4996100;28;96268;-52
2021/08/28 11:19:26;;;;;;;17.17;12.15;;;18.00;63.80;;;;;;4998630;28;94946;-51
2021/08/28 11:21:58;;;;;;;16.55;13.68;;;18.00;63.70;;;;;;4998820;28;95180;-49
2021/08/28 11:24:29;;;;;;;16.13;13.18;;;18.00;63.70;;;;;;4997999;28;96004;-53
2021/08/28 11:27:05;;;;;;;18.40;14.15;;;18.00;63.70;;;;;;4998122;28;95903;-51
2021/08/28 11:29:47;;;;;;;23.25;14.70;;;18.00;63.70;;;;;;4998507;28;94950;-48
2021/08/28 11:32:22;;;;;;;20.15;14.55;;;18.00;63.60;;;;;;4997381;28;95395;-50
2021/08/28 11:34:54;;;;;;;20.88;15.05;;;18.00;63.80;;;;;;4997749;28;96429;-49
2021/08/28 11:37:34;;;;;;;21.23;16.92;;;18.00;63.70;;;;;;4980833;28;95856;-49
2021/08/28 11:40:23;;;;;;;24.45;18.30;;;17.90;63.70;;;;;;4998011;28;95086;-51
2021/08/28 11:42:56;;;;;;;23.25;18.10;;;17.90;63.80;;;;;;4998360;28;95278;-51
2021/08/28 11:45:39;;;;;;;24.27;18.40;;;17.80;63.80;;;;;;4998201;28;95210;-52
2021/08/28 11:48:14;;;;;;;21.25;16.50;;;17.80;64.60;;;;;;4981288;28;102150;-50
2021/08/28 11:50:47;;;;;;;22.85;16.55;;;17.70;64.10;;;;;;4999038;28;95053;-52
2021/08/28 11:53:28;;;;;;;26.27;18.38;;;17.70;64.20;;;;;;4999132;28;95226;-49
2021/08/28 11:56:15;;;;;;;22.10;16.35;;;17.70;64.30;;;;;;4981259;28;96088;-50
2021/08/28 11:59:00;;;;;;;19.08;15.50;;;17.60;64.40;;;;;;4980117;28;95806;-53
2021/08/28 12:01:41;;;;;;;23.02;16.63;;;17.50;64.50;;;;;;4979075;28;94987;-53
2021/08/28 12:04:19;;;;;;;22.83;15.53;;;17.50;64.70;;;;;;4980942;28;95321;-58
2021/08/28 12:06:57;;;;;;;20.75;15.88;;;17.50;64.80;;;;;;4998231;28;96502;-49
2021/08/28 12:09:31;;;;;;;20.27;16.58;;;17.40;64.80;;;;;;4998403;28;94957;-49
2021/08/28 12:12:03;;;;;;;20.85;15.82;;;17.40;64.90;;;;;;4998320;28;94953;-51
2021/08/28 12:14:37;;;;;;;19.05;15.02;;;17.40;65.00;;;;;;4964145;28;95345;-50
2021/08/28 12:17:12;;;;;;;18.77;15.10;;;17.40;65.10;;;;;;4977806;28;96016;-51
2021/08/28 12:19:50;;;;;;;20.05;15.30;;;17.30;65.10;;;;;;4997047;28;95317;-49
2021/08/28 12:22:27;;;;;;;18.65;15.15;;;17.30;65.20;;;;;;4963669;28;95130;-51
2021/08/28 12:25:01;;;;;;;20.77;16.13;;;17.30;65.20;;;;;;4998262;28;95149;-50
2021/08/28 12:27:39;;;;;;;18.80;15.73;;;17.30;65.20;;;;;;4963573;28;96655;-50
2021/08/28 12:30:12;;;;;;;21.88;16.33;;;17.30;65.40;;;;;;4997177;28;95967;-56
2021/08/28 12:32:46;;;;;;;19.77;15.18;;;17.20;65.50;;;;;;4998498;28;94898;-52
2021/08/28 12:35:20;;;;;;;16.98;14.48;;;17.30;65.70;;;;;;4998128;28;95204;-47
2021/08/28 12:37:53;;;;;;;19.13;13.60;;;17.40;65.80;;;;;;4981716;28;96730;-46
2021/08/28 12:40:26;;;;;;;18.17;12.43;;;17.50;65.80;;;;;;4998860;28;95077;-47
2021/08/28 12:43:03;;;;;;;17.77;12.73;;;17.60;65.60;;;;;;4982049;28;95031;-51
2021/08/28 12:45:37;;;;;;;18.35;13.90;;;17.80;65.50;;;;;;4980415;28;95214;-53
2021/08/28 12:48:10;;;;;;;18.95;13.05;;;18.00;64.20;;;;;;4951528;28;97267;-48
2021/08/28 12:50:45;;;;;;;15.95;11.88;;;18.10;63.90;;;;;;4980186;28;96593;-49
2021/08/28 12:53:17;;;;;;;18.38;13.32;;;18.10;64.30;;;;;;4982956;28;94943;-51
2021/08/28 12:55:55;;;;;;;16.17;12.60;;;18.20;63.40;;;;;;4981211;28;95385;-49
2021/08/28 12:58:28;;;;;;;16.65;13.00;;;18.20;64.00;;;;;;4998449;28;96420;-53
2021/08/28 13:01:02;;;;;;;16.02;12.73;;;18.20;63.30;;;;;;4996741;28;95504;-51
2021/08/28 13:03:39;;;;;;;28.67;13.52;;;18.20;63.50;;;;;;4982454;28;95030;-49
2021/08/28 13:06:25;;;;;;;14.98;11.45;;;18.20;63.60;;;;;;4982235;28;95384;-43
2021/08/28 13:08:58;;;;;;;14.95;12.23;;;18.30;64.70;;;;;;4998156;28;96017;-45
2021/08/28 13:11:31;;;;;;;14.85;10.80;;;18.50;64.40;;;;;;4980019;28;95152;-45
2021/08/28 13:14:07;;;;;;;14.55;10.85;;;18.60;64.30;;;;;;4998790;28;94944;-45
2021/08/28 13:16:56;;;;;;;13.43;10.43;;;18.80;64.20;;;;;;4962624;28;95416;-46
2021/08/28 13:19:33;;;;;;;12.35;10.10;;;18.90;64.20;;;;;;4965436;28;97281;-45
2021/08/28 13:22:06;;;;;;;13.70;10.07;;;19.00;64.00;;;;;;4997996;28;95507;-45
2021/08/28 13:24:48;;;;;;;14.48;10.45;;;19.10;64.00;;;;;;4998965;28;94936;-47
2021/08/28 13:27:19;;;;;;;13.18;10.73;;;19.20;63.80;;;;;;4999265;28;95174;-46
2021/08/28 13:29:52;;;;;;;12.55;9.23;;;19.30;63.80;;;;;;4999746;28;95610;-48
2021/08/28 13:32:28;;;;;;;12.80;9.65;;;19.40;63.70;;;;;;4980282;28;96333;-50
2021/08/28 13:35:00;;;;;;;12.98;9.98;;;19.50;63.70;;;;;;5003088;28;94948;-47
2021/08/28 13:37:32;;;;;;;10.38;8.75;;;19.50;63.40;;;;;;4985326;28;95335;-47
2021/08/28 13:40:05;;;;;;;12.75;9.27;;;19.60;63.40;;;;;;5003753;28;96441;-46
2021/08/28 13:42:38;;;;;;;10.75;8.77;;;19.70;63.40;;;;;;5003606;28;95265;-45